createdAt,value
2022-08-09T00:00:23.314Z,53.46
2022-08-09T00:02:58.001Z,53.36
2022-08-09T00:06:15.346Z,53.65
2022-08-09T00:08:31.951Z,53.68
2022-08-09T00:11:05.937Z,53.81
2022-08-09T00:13:49.346Z,53.75
2022-08-09T00:16:25.931Z,53.81
2022-08-09T00:18:54.226Z,53.89
2022-08-09T00:21:22.363Z,53.95
2022-08-09T00:23:55.883Z,54.08
2022-08-09T00:26:30.074Z,54.14
2022-08-09T00:29:02.823Z,54.20
2022-08-09T00:31:59.865Z,53.96
2022-08-09T00:34:26.193Z,54.17
2022-08-09T00:36:58.663Z,54.16
2022-08-09T00:40:12.804Z,54.17
2022-08-09T00:44:11.611Z,54.08
2022-08-09T00:45:15.698Z,54.04
2022-08-09T00:47:46.138Z,54.01
2022-08-09T00:50:15.176Z,53.95
2022-08-09T00:52:43.887Z,53.97
2022-08-09T00:55:32.892Z,53.97
2022-08-09T00:58:00.867Z,53.96
2022-08-09T01:00:29.889Z,54.05
2022-08-09T01:03:14.579Z,53.73
2022-08-09T01:05:53.840Z,53.72
2022-08-09T01:08:31.183Z,53.54
2022-08-09T01:11:14.967Z,53.57
2022-08-09T01:13:58.911Z,53.87
2022-08-09T01:16:35.023Z,53.81
2022-08-09T01:19:16.902Z,53.72
2022-08-09T01:22:15.389Z,53.68
2022-08-09T01:24:56.818Z,53.81
2022-08-09T01:27:29.234Z,53.99
2022-08-09T01:30:02.101Z,54.00
2022-08-09T01:32:36.057Z,54.07
2022-08-09T01:35:28.192Z,54.08
2022-08-09T01:38:07.815Z,54.10
2022-08-09T01:40:44.222Z,54.09
2022-08-09T01:43:15.959Z,54.13
2022-08-09T01:45:47.582Z,54.16
2022-08-09T01:48:18.413Z,54.26
2022-08-09T01:50:54.984Z,54.20
2022-08-09T01:53:29.264Z,54.27
2022-08-09T01:56:11.680Z,54.39
2022-08-09T01:58:43.869Z,54.33
2022-08-09T02:01:18.712Z,54.42
2022-08-09T02:03:48.455Z,54.49
2022-08-09T02:06:38.974Z,54.55
2022-08-09T02:09:15.976Z,54.58
2022-08-09T02:11:46.898Z,54.59
2022-08-09T02:14:26.236Z,54.49
2022-08-09T02:17:14.680Z,54.56
2022-08-09T02:19:45.323Z,54.68
2022-08-09T02:22:31.751Z,54.43
2022-08-09T02:25:08.435Z,54.82
2022-08-09T02:27:57.621Z,54.85
2022-08-09T02:30:32.978Z,54.71
2022-08-09T02:33:03.763Z,54.91
2022-08-09T02:36:01.370Z,55.00
2022-08-09T02:38:31.239Z,55.08
2022-08-09T02:41:04.423Z,55.13
2022-08-09T02:43:53.521Z,55.37
2022-08-09T02:46:28.434Z,55.13
2022-08-09T02:49:02.835Z,55.16
2022-08-09T02:51:37.102Z,55.13
2022-08-09T02:54:13.709Z,55.00
2022-08-09T02:56:51.339Z,54.96
2022-08-09T02:59:26.195Z,55.08
2022-08-09T03:02:11.898Z,55.05
2022-08-09T03:04:41.891Z,55.22
2022-08-09T03:07:12.336Z,55.11
2022-08-09T03:09:54.342Z,55.06
2022-08-09T03:12:26.448Z,55.03
2022-08-09T03:14:56.000Z,55.33
2022-08-09T03:17:27.607Z,55.16
2022-08-09T03:20:05.202Z,55.28
2022-08-09T03:22:42.123Z,55.44
2022-08-09T03:25:26.380Z,55.38
2022-08-09T03:28:05.036Z,55.37
2022-08-09T03:30:40.510Z,55.79
2022-08-09T03:33:18.605Z,55.74
2022-08-09T03:36:13.142Z,55.76
2022-08-09T03:38:41.928Z,55.64
2022-08-09T03:41:15.576Z,55.58
2022-08-09T03:43:51.867Z,55.62
2022-08-09T03:46:32.428Z,55.49
2022-08-09T03:49:08.488Z,55.34
2022-08-09T03:51:55.108Z,55.36
2022-08-09T03:54:31.320Z,55.68
2022-08-09T03:57:04.247Z,55.68
2022-08-09T03:59:52.875Z,56.03
2022-08-09T04:02:45.015Z,56.40
2022-08-09T04:05:26.544Z,56.27
2022-08-09T04:07:57.286Z,56.36
2022-08-09T04:10:29.257Z,56.28
2022-08-09T04:13:00.731Z,56.26
2022-08-09T04:16:18.488Z,56.35
2022-08-09T04:18:21.314Z,56.37
2022-08-09T04:20:51.886Z,56.39
2022-08-09T04:23:24.590Z,56.42
2022-08-09T04:25:54.317Z,56.37
2022-08-09T04:28:33.327Z,56.33
2022-08-09T04:31:09.027Z,56.36
2022-08-09T04:33:53.049Z,56.42
2022-08-09T04:36:28.355Z,56.44
2022-08-09T04:38:59.189Z,56.48
2022-08-09T04:41:32.638Z,56.57
2022-08-09T04:44:07.252Z,56.59
2022-08-09T04:46:58.496Z,56.63
2022-08-09T04:49:54.585Z,56.72
2022-08-09T04:52:26.368Z,56.80
2022-08-09T04:54:56.398Z,56.82
2022-08-09T04:57:25.397Z,56.85
2022-08-09T04:59:56.306Z,56.88
2022-08-09T05:02:27.320Z,57.02
2022-08-09T05:04:56.452Z,57.18
2022-08-09T05:07:27.754Z,57.21
2022-08-09T05:10:01.963Z,57.30
2022-08-09T05:12:33.210Z,57.39
2022-08-09T05:15:11.635Z,57.50
2022-08-09T05:18:38.717Z,57.53
2022-08-09T05:20:30.456Z,57.78
2022-08-09T05:23:53.785Z,57.84
2022-08-09T05:25:50.636Z,57.98
2022-08-09T05:28:19.919Z,58.10
2022-08-09T05:30:48.736Z,58.22
2022-08-09T05:33:26.323Z,58.41
2022-08-09T05:36:01.810Z,58.58
2022-08-09T05:38:32.077Z,58.59
2022-08-09T05:41:00.740Z,58.67
2022-08-09T05:43:32.011Z,58.73
2022-08-09T05:46:00.912Z,58.81
2022-08-09T05:48:32.936Z,58.82
2022-08-09T05:51:42.446Z,58.93
2022-08-09T05:53:57.296Z,58.93
2022-08-09T05:56:28.368Z,58.94
2022-08-09T05:58:59.154Z,58.93
2022-08-09T06:01:33.946Z,58.96
2022-08-09T06:04:12.085Z,58.91
2022-08-09T06:06:46.767Z,58.94
2022-08-09T06:09:23.060Z,58.99
2022-08-09T06:12:09.296Z,58.96
2022-08-09T06:14:37.601Z,58.93
2022-08-09T06:17:09.899Z,58.83
2022-08-09T06:19:38.972Z,58.83
2022-08-09T06:22:15.198Z,58.90
2022-08-09T06:24:48.990Z,58.54
2022-08-09T06:27:17.360Z,58.69
2022-08-09T06:29:48.006Z,58.61
2022-08-09T06:32:59.876Z,58.44
2022-08-09T06:35:15.496Z,58.36
2022-08-09T06:37:53.141Z,58.32
2022-08-09T06:40:33.719Z,58.08
2022-08-09T06:43:02.254Z,58.07
2022-08-09T06:46:05.102Z,57.80
2022-08-09T06:48:30.115Z,57.35
2022-08-09T06:50:58.981Z,57.32
2022-08-09T06:53:33.348Z,57.23
2022-08-09T06:56:09.540Z,57.09
2022-08-09T07:00:47.509Z,56.73
2022-08-09T07:01:27.565Z,56.47
2022-08-09T07:04:04.367Z,56.30
2022-08-09T07:06:32.972Z,55.95
2022-08-09T07:09:02.666Z,55.26
2022-08-09T07:11:45.541Z,55.13
2022-08-09T07:14:26.716Z,54.50
2022-08-09T07:16:58.253Z,54.39
2022-08-09T07:19:26.659Z,54.27
2022-08-09T07:21:58.947Z,53.84
2022-08-09T07:24:31.918Z,52.30
2022-08-09T07:27:27.194Z,51.81
2022-08-09T07:30:00.518Z,49.89
2022-08-09T07:32:32.675Z,48.81
2022-08-09T07:35:07.891Z,47.31
2022-08-09T07:37:42.932Z,46.60
2022-08-09T07:40:16.968Z,45.32
2022-08-09T07:42:56.145Z,45.28
2022-08-09T07:45:37.702Z,44.48
2022-08-09T07:48:22.389Z,43.93
2022-08-09T07:51:02.966Z,45.04
2022-08-09T07:54:04.726Z,44.69
2022-08-09T07:56:27.930Z,44.57
2022-08-09T07:59:00.913Z,42.92
2022-08-09T08:01:33.932Z,43.22
2022-08-09T08:04:03.457Z,43.73
2022-08-09T08:06:32.628Z,43.64
2022-08-09T08:09:05.390Z,42.43
2022-08-09T08:12:12.019Z,41.53
2022-08-09T08:14:35.837Z,42.97
2022-08-09T08:17:08.709Z,41.52
2022-08-09T08:19:37.595Z,41.65
2022-08-09T08:22:05.901Z,42.13
2022-08-09T08:24:40.555Z,42.65
2022-08-09T08:27:17.089Z,43.06
2022-08-09T08:29:50.150Z,42.47
2022-08-09T08:32:24.148Z,42.48
2022-08-09T08:34:58.814Z,42.58
2022-08-09T08:37:41.050Z,43.06
2022-08-09T08:40:11.786Z,42.63
2022-08-09T08:42:40.625Z,42.20
2022-08-09T08:45:15.007Z,41.12
2022-08-09T08:47:46.045Z,41.25
2022-08-09T08:50:18.232Z,41.38
2022-08-09T08:52:59.089Z,40.39
2022-08-09T08:55:28.326Z,40.62
2022-08-09T08:58:00.549Z,39.26
2022-08-09T09:00:34.436Z,39.17
2022-08-09T09:03:11.831Z,38.85
2022-08-09T09:05:59.742Z,38.20
2022-08-09T09:08:32.320Z,35.79
2022-08-09T09:11:09.114Z,36.97
2022-08-09T09:13:57.557Z,36.72
2022-08-09T09:16:31.868Z,36.76
2022-08-09T09:19:37.714Z,36.11
2022-08-09T09:22:07.460Z,35.56
2022-08-09T09:24:38.183Z,35.01
2022-08-09T09:28:02.804Z,36.39
2022-08-09T09:33:02.756Z,35.85
2022-08-09T09:36:02.410Z,34.06
2022-08-09T09:38:46.880Z,33.93
2022-08-09T09:41:33.444Z,32.54
2022-08-09T09:44:25.354Z,32.40
2022-08-09T09:46:58.513Z,32.07
2022-08-09T09:49:50.053Z,31.70
2022-08-09T09:52:33.632Z,31.05
2022-08-09T09:55:16.787Z,30.99
2022-08-09T09:58:01.150Z,31.04
2022-08-09T10:00:33.683Z,30.96
2022-08-09T10:03:11.705Z,29.42
2022-08-09T10:06:04.661Z,29.87
2022-08-09T10:08:43.045Z,28.59
2022-08-09T10:11:58.996Z,27.99
2022-08-09T10:14:31.051Z,28.13
2022-08-09T10:17:39.263Z,28.53
2022-08-09T10:20:00.064Z,26.81
2022-08-09T10:22:37.379Z,27.71
2022-08-09T10:25:11.660Z,26.61
2022-08-09T10:27:45.151Z,27.21
2022-08-09T10:33:29.580Z,26.04
2022-08-09T10:36:04.459Z,26.94
2022-08-09T10:38:57.257Z,25.32
2022-08-09T10:41:22.386Z,24.51
2022-08-09T10:43:58.759Z,24.65
2022-08-09T10:47:00.720Z,23.70
2022-08-09T10:49:50.347Z,23.95
2022-08-09T10:52:42.774Z,22.92
2022-08-09T10:55:26.254Z,22.89
2022-08-09T10:58:00.343Z,23.21
2022-08-09T11:01:35.849Z,22.95
2022-08-09T11:03:50.666Z,23.28
2022-08-09T11:06:24.534Z,22.62
2022-08-09T11:08:54.106Z,22.11
2022-08-09T11:11:24.444Z,22.47
2022-08-09T11:14:28.827Z,21.70
2022-08-09T11:17:00.188Z,20.82
2022-08-09T11:20:07.872Z,21.78
2022-08-09T11:23:10.022Z,22.45
2022-08-09T11:25:47.516Z,22.74
2022-08-09T11:28:56.154Z,23.39
2022-08-09T11:31:49.742Z,22.34
2022-08-09T11:34:43.979Z,21.95
2022-08-09T11:37:31.230Z,20.70
2022-08-09T11:40:11.459Z,20.51
2022-08-09T11:42:48.501Z,20.34
2022-08-09T11:45:42.187Z,20.37
2022-08-09T11:48:26.353Z,20.75
2022-08-09T11:53:00.982Z,21.29
2022-08-09T11:54:27.908Z,19.57
2022-08-09T11:57:47.510Z,20.23
2022-08-09T12:00:30.932Z,20.02
2022-08-09T12:03:09.839Z,18.25
2022-08-09T12:05:51.047Z,19.88
2022-08-09T12:08:21.905Z,18.87
2022-08-09T12:10:53.663Z,18.89
2022-08-09T12:14:08.117Z,19.32
2022-08-09T12:16:37.245Z,19.98
2022-08-09T12:19:09.228Z,18.71
2022-08-09T12:21:48.638Z,18.57
2022-08-09T12:24:22.416Z,18.55
2022-08-09T12:29:12.230Z,18.88
2022-08-09T12:30:01.500Z,18.35
2022-08-09T12:32:44.586Z,18.41
2022-08-09T12:35:19.386Z,19.96
2022-08-09T12:37:51.965Z,19.94
2022-08-09T12:40:24.442Z,19.22
2022-08-09T12:42:53.146Z,18.73
2022-08-09T12:45:34.442Z,18.61
2022-08-09T12:48:20.035Z,18.46
2022-08-09T12:50:59.711Z,18.14
2022-08-09T12:55:00.790Z,18.51
2022-08-09T12:57:42.171Z,19.22
2022-08-09T13:00:25.225Z,19.31
2022-08-09T13:02:56.768Z,18.67
2022-08-09T13:05:35.470Z,18.32
2022-08-09T13:08:21.316Z,18.02
2022-08-09T13:11:23.121Z,17.51
2022-08-09T13:14:37.911Z,18.66
2022-08-09T13:20:08.644Z,19.57
2022-08-09T13:23:05.322Z,19.70
2022-08-09T13:25:42.372Z,20.18
2022-08-09T13:28:18.827Z,20.14
2022-08-09T13:32:18.119Z,19.35
2022-08-09T13:33:54.748Z,19.94
2022-08-09T13:36:39.947Z,20.82
2022-08-09T13:41:17.706Z,19.99
2022-08-09T13:42:04.591Z,20.49
2022-08-09T13:44:34.044Z,20.89
2022-08-09T13:47:29.049Z,19.76
2022-08-09T13:50:02.928Z,20.19
2022-08-09T13:52:33.360Z,20.60
2022-08-09T13:55:07.204Z,20.91
2022-08-09T13:57:40.195Z,21.12
2022-08-09T14:00:13.260Z,20.50
2022-08-09T14:03:16.799Z,21.74
2022-08-09T14:05:59.035Z,21.38
2022-08-09T14:08:20.724Z,22.27
2022-08-09T14:10:52.317Z,22.08
2022-08-09T14:14:15.643Z,22.68
2022-08-09T14:16:13.990Z,23.00
2022-08-09T14:18:49.345Z,22.54
2022-08-09T14:21:20.316Z,21.99
2022-08-09T14:23:54.542Z,21.96
2022-08-09T14:26:32.468Z,23.16
2022-08-09T14:29:03.568Z,22.75
2022-08-09T14:31:52.218Z,22.94
2022-08-09T14:34:27.545Z,23.10
2022-08-09T14:37:06.633Z,22.83
2022-08-09T14:39:40.206Z,22.92
2022-08-09T14:42:31.456Z,22.85
2022-08-09T14:46:40.385Z,23.00
2022-08-09T14:48:09.480Z,22.17
2022-08-09T14:50:38.168Z,22.67
2022-08-09T14:53:12.248Z,23.44
2022-08-09T14:55:41.860Z,23.83
2022-08-09T14:58:19.866Z,24.67
2022-08-09T15:00:51.218Z,23.61
2022-08-09T15:03:21.012Z,24.05
2022-08-09T15:05:54.846Z,23.55
2022-08-09T15:08:26.474Z,23.37
2022-08-09T15:11:01.162Z,23.30
2022-08-09T15:13:48.064Z,24.38
2022-08-09T15:16:19.822Z,24.45
2022-08-09T15:18:49.119Z,23.60
2022-08-09T15:21:55.525Z,24.71
2022-08-09T15:24:16.199Z,24.23
2022-08-09T15:26:49.013Z,23.91
2022-08-09T15:30:58.869Z,24.39
2022-08-09T15:32:39.219Z,24.56
2022-08-09T15:35:01.169Z,24.69
2022-08-09T15:37:56.109Z,25.10
2022-08-09T15:40:25.276Z,24.08
2022-08-09T15:43:00.582Z,24.33
2022-08-09T15:45:51.661Z,25.08
2022-08-09T15:48:28.959Z,25.04
2022-08-09T15:50:59.001Z,25.22
2022-08-09T15:54:04.581Z,24.98
2022-08-09T15:56:28.407Z,25.15
2022-08-09T15:58:59.154Z,25.75
2022-08-09T16:01:31.409Z,24.13
2022-08-09T16:04:03.927Z,25.22
2022-08-09T16:06:34.856Z,26.10
2022-08-09T16:09:05.211Z,25.95
2022-08-09T16:11:33.970Z,25.85
2022-08-09T16:14:07.042Z,25.79
2022-08-09T16:16:42.055Z,26.37
2022-08-09T16:19:15.071Z,25.44
2022-08-09T16:21:48.574Z,25.94
2022-08-09T16:24:33.190Z,27.01
2022-08-09T16:27:05.766Z,27.05
2022-08-09T16:29:37.411Z,26.58
2022-08-09T16:32:33.517Z,26.05
2022-08-09T16:35:02.739Z,26.16
2022-08-09T16:37:55.474Z,26.75
2022-08-09T16:40:29.859Z,25.90
2022-08-09T16:43:08.328Z,26.77
2022-08-09T16:45:43.921Z,26.76
2022-08-09T16:48:42.730Z,26.88
2022-08-09T16:51:08.163Z,27.45
2022-08-09T16:53:37.312Z,26.47
2022-08-09T16:56:10.401Z,27.26
2022-08-09T16:58:39.896Z,27.36
2022-08-09T17:01:19.148Z,27.21
2022-08-09T17:03:49.164Z,27.55
2022-08-09T17:06:31.786Z,27.25
2022-08-09T17:09:17.784Z,27.48
2022-08-09T17:11:52.646Z,28.55
2022-08-09T17:14:26.980Z,28.18
2022-08-09T17:16:59.878Z,28.42
2022-08-09T17:19:47.312Z,28.98
2022-08-09T17:22:23.641Z,28.48
2022-08-09T17:25:03.346Z,28.17
2022-08-09T17:27:33.357Z,27.86
2022-08-09T17:30:04.811Z,28.33
2022-08-09T17:32:38.340Z,28.17
2022-08-09T17:35:11.227Z,28.22
2022-08-09T17:38:02.199Z,28.79
2022-08-09T17:41:02.932Z,29.20
2022-08-09T17:43:37.632Z,29.37
2022-08-09T17:46:08.960Z,29.16
2022-08-09T17:48:40.171Z,29.51
2022-08-09T17:51:18.614Z,29.77
2022-08-09T17:53:51.824Z,29.88
2022-08-09T17:56:26.647Z,30.19
2022-08-09T17:58:56.867Z,30.87
2022-08-09T18:01:25.077Z,31.31
2022-08-09T18:03:54.431Z,31.28
2022-08-09T18:06:32.348Z,31.25
2022-08-09T18:09:03.141Z,31.53
2022-08-09T18:12:05.691Z,32.56
2022-08-09T18:14:23.490Z,32.52
2022-08-09T18:16:54.123Z,32.67
2022-08-09T18:20:59.614Z,33.00
2022-08-09T18:22:17.070Z,33.09
2022-08-09T18:24:46.647Z,33.48
2022-08-09T18:27:49.207Z,33.70
2022-08-09T18:30:41.160Z,33.92
2022-08-09T18:32:54.062Z,34.25
2022-08-09T18:35:47.930Z,34.53
2022-08-09T18:38:16.468Z,34.53
2022-08-09T18:40:48.262Z,35.17
2022-08-09T18:43:52.929Z,35.29
2022-08-09T18:46:46.809Z,35.71
2022-08-09T18:49:09.859Z,36.14
2022-08-09T18:51:54.908Z,36.31
2022-08-09T18:54:30.499Z,36.18
2022-08-09T18:57:05.817Z,37.01
2022-08-09T18:59:48.496Z,37.32
2022-08-09T19:02:18.685Z,37.53
2022-08-09T19:05:04.403Z,37.71
2022-08-09T19:07:41.064Z,38.34
2022-08-09T19:10:17.745Z,38.92
2022-08-09T19:12:51.449Z,38.85
2022-08-09T19:15:27.292Z,39.00
2022-08-09T19:17:58.270Z,39.36
2022-08-09T19:20:34.390Z,39.71
2022-08-09T19:23:08.187Z,39.90
2022-08-09T19:26:02.019Z,39.81
2022-08-09T19:28:34.894Z,40.20
2022-08-09T19:31:07.749Z,40.36
2022-08-09T19:33:36.213Z,40.49
2022-08-09T19:36:05.108Z,40.88
2022-08-09T19:38:39.939Z,41.02
2022-08-09T19:41:09.482Z,41.42
2022-08-09T19:44:02.057Z,41.82
2022-08-09T19:46:34.190Z,41.88
2022-08-09T19:50:08.877Z,42.00
2022-08-09T19:51:55.685Z,42.34
2022-08-09T19:54:25.407Z,42.48
2022-08-09T19:56:55.002Z,42.84
2022-08-09T19:59:59.503Z,43.26
2022-08-09T20:02:17.208Z,43.37
2022-08-09T20:05:09.987Z,43.58
2022-08-09T20:07:59.470Z,43.74
2022-08-09T20:10:34.890Z,43.82
2022-08-09T20:13:08.299Z,44.19
2022-08-09T20:16:36.456Z,44.31
2022-08-09T20:18:27.994Z,44.35
2022-08-09T20:20:57.002Z,44.51
2022-08-09T20:23:38.975Z,44.73
2022-08-09T20:26:08.456Z,44.67
2022-08-09T20:28:48.789Z,44.99
2022-08-09T20:31:18.199Z,45.30
2022-08-09T20:33:46.636Z,45.36
2022-08-09T20:36:20.673Z,45.80
2022-08-09T20:41:37.387Z,46.22
2022-08-09T20:44:10.539Z,46.23
2022-08-09T20:46:43.139Z,46.50
2022-08-09T20:49:16.067Z,46.49
2022-08-09T20:51:50.360Z,46.96
2022-08-09T20:54:19.146Z,47.25
2022-08-09T20:56:49.888Z,47.44
2022-08-09T21:00:19.881Z,47.57
2022-08-09T21:02:18.446Z,47.83
2022-08-09T21:05:57.996Z,47.96
2022-08-09T21:07:40.433Z,48.18
2022-08-09T21:10:12.521Z,48.47
2022-08-09T21:15:33.988Z,48.72
2022-08-09T21:18:21.967Z,48.78
2022-08-09T21:20:54.367Z,48.69
2022-08-09T21:23:47.136Z,48.96
2022-08-09T21:26:10.875Z,49.05
2022-08-09T21:28:39.667Z,49.00
2022-08-09T21:31:49.405Z,49.15
2022-08-09T21:34:14.804Z,49.19
2022-08-09T21:36:56.740Z,49.30
2022-08-09T21:39:28.198Z,49.47
2022-08-09T21:42:10.223Z,49.61
2022-08-09T21:44:39.019Z,49.70
2022-08-09T21:47:11.782Z,49.70
2022-08-09T21:49:46.386Z,49.89
2022-08-09T21:52:20.545Z,49.98
2022-08-09T21:55:03.535Z,49.92
2022-08-09T21:57:38.325Z,49.97
2022-08-09T22:00:26.810Z,50.21
2022-08-09T22:03:05.513Z,50.27
2022-08-09T22:05:36.940Z,50.32
2022-08-09T22:08:13.073Z,50.51
2022-08-09T22:11:49.842Z,50.66
2022-08-09T22:13:34.771Z,50.91
2022-08-09T22:16:07.754Z,51.18
2022-08-09T22:18:54.418Z,51.16
2022-08-09T22:21:24.974Z,51.30
2022-08-09T22:24:01.708Z,51.33
2022-08-09T22:26:35.361Z,51.47
2022-08-09T22:29:09.256Z,51.59
2022-08-09T22:31:50.248Z,51.60
2022-08-09T22:34:27.280Z,51.64
2022-08-09T22:36:55.843Z,51.64
2022-08-09T22:39:56.202Z,51.63
2022-08-09T22:42:20.965Z,51.79
2022-08-09T22:45:11.568Z,51.93
2022-08-09T22:48:16.515Z,51.87
2022-08-09T22:50:29.631Z,51.91
2022-08-09T22:52:58.623Z,51.84
2022-08-09T22:55:39.654Z,52.02
2022-08-09T22:58:20.274Z,52.04
2022-08-09T23:00:59.543Z,52.01
2022-08-09T23:03:31.241Z,52.23
2022-08-09T23:06:35.816Z,52.34
2022-08-09T23:09:05.578Z,52.49
2022-08-09T23:11:33.604Z,52.94
2022-08-09T23:14:02.999Z,52.78
2022-08-09T23:16:31.401Z,52.82
2022-08-09T23:18:59.514Z,52.88
2022-08-09T23:21:34.349Z,53.13
2022-08-09T23:24:07.509Z,53.24
2022-08-09T23:26:36.637Z,53.10
2022-08-09T23:29:05.701Z,53.12
2022-08-09T23:31:34.403Z,53.13
2022-08-09T23:34:07.651Z,53.21
2022-08-09T23:36:37.442Z,53.32
2022-08-09T23:39:07.340Z,53.37
2022-08-09T23:41:37.218Z,53.25
2022-08-09T23:44:06.390Z,53.10
2022-08-09T23:46:34.922Z,53.20
2022-08-09T23:49:06.980Z,53.23
2022-08-09T23:51:36.454Z,53.21
2022-08-09T23:54:04.870Z,53.36
2022-08-09T23:56:53.435Z,53.31
2022-08-09T23:59:23.960Z,53.27
